Time;durP1;ratioP1;P1;durP2;ratioP2;P2;SDS_P1;SDS_P2;PMS_P1;PMS_P2;Temp;Humidity;BMP_temperature;BMP_pressure;BME280_temperature;BME280_humidity;BME280_pressure;Samples;Min_cycle;Max_cycle;Signal;HPM_P1;HPM_P2
2022/05/30 00:02:11;;;;;;;0.97;0.93;;;;;;;;;;4959888;28;20252;-33
2022/05/30 00:04:38;;;;;;;0.93;0.93;;;;;;;;;;4968773;28;20205;-33
2022/05/30 00:07:06;;;;;;;2.27;0.93;;;;;;;;;;4952188;28;20588;-31
2022/05/30 00:09:34;;;;;;;0.90;0.90;;;;;;;;;;4949906;28;20240;-34
2022/05/30 00:12:02;;;;;;;0.70;0.70;;;;;;;;;;4969980;28;20322;-31
2022/05/30 00:14:29;;;;;;;1.07;0.80;;;;;;;;;;4971719;28;20714;-34
2022/05/30 00:16:57;;;;;;;0.90;0.90;;;;;;;;;;4959007;28;20228;-33
2022/05/30 00:19:24;;;;;;;2.10;1.00;;;;;;;;;;4968410;28;20212;-33
2022/05/30 00:21:52;;;;;;;0.80;0.80;;;;;;;;;;4970851;28;20220;-34
2022/05/30 00:24:19;;;;;;;0.60;0.60;;;;;;;;;;4966187;28;20736;-33
2022/05/30 00:26:48;;;;;;;1.27;0.90;;;;;;;;;;4957076;28;20240;-33
2022/05/30 00:29:15;;;;;;;0.80;0.80;;;;;;;;;;4977897;28;20205;-33
2022/05/30 00:31:42;;;;;;;0.70;0.70;;;;;;;;;;4967274;28;20686;-32
2022/05/30 00:34:09;;;;;;;1.10;1.00;;;;;;;;;;4974159;28;20213;-33
2022/05/30 00:36:37;;;;;;;0.83;0.83;;;;;;;;;;4979524;28;20243;-31
2022/05/30 00:39:04;;;;;;;1.53;0.93;;;;;;;;;;4978826;28;20243;-34
2022/05/30 00:41:31;;;;;;;0.83;0.83;;;;;;;;;;4972644;28;20229;-33
2022/05/30 00:44:00;;;;;;;0.80;0.80;;;;;;;;;;4959309;28;20200;-34
2022/05/30 00:46:27;;;;;;;0.87;0.83;;;;;;;;;;4959699;28;20244;-34
2022/05/30 00:48:56;;;;;;;1.07;1.00;;;;;;;;;;4965578;28;20573;-32
2022/05/30 00:51:26;;;;;;;1.13;0.80;;;;;;;;;;4972725;28;20201;-30
2022/05/30 00:53:54;;;;;;;1.70;1.40;;;;;;;;;;4977117;28;20204;-31
2022/05/30 00:56:21;;;;;;;0.97;0.97;;;;;;;;;;4961821;28;20243;-32
2022/05/30 00:58:49;;;;;;;1.87;1.30;;;;;;;;;;4967029;28;20219;-33
2022/05/30 01:01:19;;;;;;;3.30;1.17;;;;;;;;;;4961130;28;20215;-33
2022/05/30 01:06:32;;;;;;;0.90;0.90;;;;;;;;;;4979093;28;20433;-34
2022/05/30 01:09:00;;;;;;;1.40;1.10;;;;;;;;;;4976003;28;20288;-34
2022/05/30 01:11:27;;;;;;;1.60;0.80;;;;;;;;;;4964056;28;20208;-33
2022/05/30 01:13:54;;;;;;;0.70;0.70;;;;;;;;;;4973248;28;20197;-33
2022/05/30 01:16:23;;;;;;;2.67;1.00;;;;;;;;;;4958368;28;20231;-33
2022/05/30 01:18:53;;;;;;;2.83;1.40;;;;;;;;;;4967816;28;20217;-33
2022/05/30 01:21:36;;;;;;;1.03;1.00;;;;;;;;;;4966264;28;20604;-33
2022/05/30 01:24:14;;;;;;;0.90;0.90;;;;;;;;;;4970143;28;20209;-32
2022/05/30 01:26:56;;;;;;;0.77;0.70;;;;;;;;;;4974846;28;20728;-31
2022/05/30 01:29:27;;;;;;;0.90;0.90;;;;;;;;;;4970464;28;20200;-32
2022/05/30 01:31:54;;;;;;;0.80;0.80;;;;;;;;;;4961787;28;20200;-31
2022/05/30 01:34:23;;;;;;;0.90;0.90;;;;;;;;;;4959648;28;20746;-32
2022/05/30 01:36:50;;;;;;;2.30;1.27;;;;;;;;;;4975909;28;20757;-30
2022/05/30 01:39:17;;;;;;;1.27;1.10;;;;;;;;;;4968485;28;20213;-33
2022/05/30 01:41:45;;;;;;;1.47;1.10;;;;;;;;;;4969388;28;20240;-30
2022/05/30 01:44:14;;;;;;;0.90;0.90;;;;;;;;;;4960011;28;20529;-32
2022/05/30 01:46:42;;;;;;;0.80;0.80;;;;;;;;;;4966330;28;20758;-30
2022/05/30 01:49:11;;;;;;;2.03;1.00;;;;;;;;;;4966080;28;20209;-31
2022/05/30 01:51:38;;;;;;;1.07;0.90;;;;;;;;;;4954801;28;20300;-31
2022/05/30 01:54:06;;;;;;;1.27;0.90;;;;;;;;;;4956649;28;20213;-32
2022/05/30 01:56:34;;;;;;;0.77;0.77;;;;;;;;;;4969699;28;20225;-30
2022/05/30 01:59:01;;;;;;;0.80;0.80;;;;;;;;;;4969485;28;20201;-30
2022/05/30 02:01:28;;;;;;;1.53;1.20;;;;;;;;;;4963982;28;20204;-28
2022/05/30 02:03:57;;;;;;;0.80;0.80;;;;;;;;;;4967709;28;20681;-31
2022/05/30 02:06:26;;;;;;;3.80;0.97;;;;;;;;;;4958221;28;20225;-28
2022/05/30 02:08:53;;;;;;;1.83;1.10;;;;;;;;;;4954479;28;20217;-31
2022/05/30 02:11:21;;;;;;;1.03;1.03;;;;;;;;;;4953253;28;20212;-31
2022/05/30 02:13:48;;;;;;;2.20;0.90;;;;;;;;;;4955990;28;20209;-31
2022/05/30 02:19:01;;;;;;;1.00;1.00;;;;;;;;;;4962253;28;20267;-32
2022/05/30 02:21:28;;;;;;;1.83;0.87;;;;;;;;;;4957260;28;20198;-31
2022/05/30 02:23:55;;;;;;;1.30;0.90;;;;;;;;;;4953862;29;20201;-32
2022/05/30 02:26:22;;;;;;;2.57;1.07;;;;;;;;;;4959913;28;20225;-33
2022/05/30 02:28:50;;;;;;;1.33;0.90;;;;;;;;;;4965368;28;20220;-31
2022/05/30 02:31:17;;;;;;;0.97;0.90;;;;;;;;;;4956564;28;20210;-31
2022/05/30 02:36:39;;;;;;;0.80;0.80;;;;;;;;;;4953567;28;20537;-30
2022/05/30 02:39:07;;;;;;;1.03;0.90;;;;;;;;;;4959559;28;20211;-31
2022/05/30 02:41:34;;;;;;;1.30;1.00;;;;;;;;;;4959487;28;20209;-29
2022/05/30 02:44:01;;;;;;;1.17;1.07;;;;;;;;;;4972186;28;20197;-31
2022/05/30 02:46:28;;;;;;;1.20;1.10;;;;;;;;;;4964562;28;20232;-30
2022/05/30 02:48:55;;;;;;;2.50;1.10;;;;;;;;;;4958377;28;20201;-30
2022/05/30 02:51:22;;;;;;;1.27;0.93;;;;;;;;;;4953505;28;20569;-30
2022/05/30 02:53:51;;;;;;;0.90;0.90;;;;;;;;;;4955356;28;20237;-29
2022/05/30 02:56:18;;;;;;;4.40;1.10;;;;;;;;;;4956697;28;20225;-31
2022/05/30 02:58:45;;;;;;;1.80;1.07;;;;;;;;;;4970043;28;20209;-31
2022/05/30 03:01:13;;;;;;;3.80;1.07;;;;;;;;;;4962652;28;20215;-36
2022/05/30 03:03:40;;;;;;;1.57;1.10;;;;;;;;;;4968665;28;20228;-32
2022/05/30 03:06:07;;;;;;;0.80;0.80;;;;;;;;;;4966163;28;20235;-34
2022/05/30 03:08:34;;;;;;;0.80;0.80;;;;;;;;;;4972575;28;20212;-30
2022/05/30 03:11:03;;;;;;;1.73;0.60;;;;;;;;;;4962608;28;20206;-32
2022/05/30 03:13:30;;;;;;;3.40;1.07;;;;;;;;;;4955657;28;20224;-31
2022/05/30 03:15:58;;;;;;;0.80;0.80;;;;;;;;;;4961885;28;20583;-31
2022/05/30 03:18:25;;;;;;;3.33;0.70;;;;;;;;;;4960841;28;20297;-35
2022/05/30 03:20:53;;;;;;;0.70;0.70;;;;;;;;;;4971992;28;20197;-32
2022/05/30 03:23:20;;;;;;;0.80;0.80;;;;;;;;;;4970323;28;20734;-31
2022/05/30 03:28:17;;;;;;;1.40;0.90;;;;;;;;;;4983655;28;20295;-41
2022/05/30 03:30:44;;;;;;;1.07;0.97;;;;;;;;;;4973031;28;20209;-37
2022/05/30 03:33:12;;;;;;;1.03;1.00;;;;;;;;;;4979209;28;20291;-38
2022/05/30 03:35:39;;;;;;;0.87;0.87;;;;;;;;;;4982437;28;20224;-37
2022/05/30 03:38:07;;;;;;;3.73;1.00;;;;;;;;;;4992762;28;20224;-37
2022/05/30 03:40:36;;;;;;;1.07;0.97;;;;;;;;;;4982889;28;20214;-36
2022/05/30 03:43:04;;;;;;;3.00;0.90;;;;;;;;;;4983671;28;20228;-33
2022/05/30 03:45:32;;;;;;;1.23;0.87;;;;;;;;;;4983328;28;20224;-41
2022/05/30 03:47:59;;;;;;;1.23;1.13;;;;;;;;;;4977241;28;20204;-38
2022/05/30 03:50:26;;;;;;;1.07;0.97;;;;;;;;;;4983278;28;20204;-34
2022/05/30 03:52:54;;;;;;;1.20;0.97;;;;;;;;;;4987926;28;20295;-34
2022/05/30 03:55:22;;;;;;;1.20;1.10;;;;;;;;;;4980294;28;20212;-42
2022/05/30 03:57:50;;;;;;;0.80;0.80;;;;;;;;;;4981578;28;20232;-33
2022/05/30 04:00:18;;;;;;;0.83;0.80;;;;;;;;;;4973267;28;20216;-38
2022/05/30 04:02:48;;;;;;;1.73;1.10;;;;;;;;;;4976112;28;20232;-35
2022/05/30 04:05:15;;;;;;;0.90;0.90;;;;;;;;;;4982753;28;20269;-35
2022/05/30 04:07:42;;;;;;;1.10;0.97;;;;;;;;;;4992452;28;20204;-36
2022/05/30 04:10:10;;;;;;;2.33;1.00;;;;;;;;;;4979382;28;20211;-34
2022/05/30 04:12:38;;;;;;;1.10;1.00;;;;;;;;;;4972501;28;20212;-38
2022/05/30 04:15:06;;;;;;;0.90;0.90;;;;;;;;;;4973348;28;20208;-31
2022/05/30 04:17:34;;;;;;;1.90;1.10;;;;;;;;;;4977556;28;20221;-41
2022/05/30 04:20:02;;;;;;;3.27;1.30;;;;;;;;;;4988402;28;20225;-36
2022/05/30 04:22:29;;;;;;;2.10;0.90;;;;;;;;;;4973584;28;20225;-38
2022/05/30 04:24:56;;;;;;;1.20;1.10;;;;;;;;;;4975734;28;20205;-41
2022/05/30 04:27:24;;;;;;;0.90;0.90;;;;;;;;;;4972775;28;20236;-38
2022/05/30 04:29:51;;;;;;;1.73;1.10;;;;;;;;;;4991897;28;20212;-35
2022/05/30 04:32:18;;;;;;;1.13;0.90;;;;;;;;;;4971620;28;20215;-39
2022/05/30 04:34:45;;;;;;;0.90;0.90;;;;;;;;;;4986926;28;20262;-38
2022/05/30 04:37:14;;;;;;;0.93;0.93;;;;;;;;;;4986683;28;20311;-33
2022/05/30 04:39:41;;;;;;;1.77;0.90;;;;;;;;;;4973775;28;20212;-37
2022/05/30 04:42:08;;;;;;;0.90;0.90;;;;;;;;;;4975625;28;20208;-32
2022/05/30 04:44:37;;;;;;;0.87;0.87;;;;;;;;;;4984116;28;20235;-32
2022/05/30 04:47:04;;;;;;;1.23;1.10;;;;;;;;;;4983171;28;20228;-38
2022/05/30 04:49:31;;;;;;;1.90;0.90;;;;;;;;;;4991784;28;20212;-38
2022/05/30 04:51:59;;;;;;;1.00;1.00;;;;;;;;;;4990257;28;20211;-37
2022/05/30 04:54:27;;;;;;;3.80;1.60;;;;;;;;;;4980970;28;20209;-39
2022/05/30 04:56:54;;;;;;;2.57;0.70;;;;;;;;;;4982646;28;20234;-35
2022/05/30 04:59:21;;;;;;;1.80;1.10;;;;;;;;;;4991897;28;20470;-36
2022/05/30 05:01:48;;;;;;;0.90;0.90;;;;;;;;;;4982118;28;20211;-40
2022/05/30 05:04:15;;;;;;;1.33;1.00;;;;;;;;;;4989324;28;20232;-41
2022/05/30 05:06:44;;;;;;;0.93;0.90;;;;;;;;;;4992405;28;20255;-33
2022/05/30 05:09:25;;;;;;;2.10;1.20;;;;;;;;;;4990231;28;20259;-39
2022/05/30 05:11:54;;;;;;;1.20;1.10;;;;;;;;;;4978968;28;20209;-40
2022/05/30 05:14:21;;;;;;;1.63;1.10;;;;;;;;;;4994593;28;20215;-32
2022/05/30 05:16:49;;;;;;;1.67;1.17;;;;;;;;;;4985724;28;20256;-38
2022/05/30 05:19:16;;;;;;;1.10;1.10;;;;;;;;;;4995859;28;20208;-35
2022/05/30 05:21:45;;;;;;;2.33;1.47;;;;;;;;;;4983432;28;20236;-39
2022/05/30 05:24:12;;;;;;;1.03;0.97;;;;;;;;;;4989759;28;20231;-35
2022/05/30 05:26:44;;;;;;;1.23;1.20;;;;;;;;;;4991967;28;20242;-39
2022/05/30 05:29:13;;;;;;;1.27;1.20;;;;;;;;;;4981928;28;20233;-41
2022/05/30 05:31:40;;;;;;;1.47;1.37;;;;;;;;;;4983339;28;20205;-35
2022/05/30 05:34:08;;;;;;;2.83;1.20;;;;;;;;;;4986604;28;20231;-41
2022/05/30 05:36:37;;;;;;;2.87;1.40;;;;;;;;;;4978701;28;20228;-39
2022/05/30 05:39:04;;;;;;;1.10;1.10;;;;;;;;;;4976198;28;20216;-33
2022/05/30 05:41:32;;;;;;;2.13;1.47;;;;;;;;;;4980301;28;20229;-38
2022/05/30 05:43:59;;;;;;;1.50;1.40;;;;;;;;;;4991858;28;20224;-38
2022/05/30 05:46:29;;;;;;;3.13;1.40;;;;;;;;;;4980518;28;20255;-35
2022/05/30 05:48:59;;;;;;;1.60;1.43;;;;;;;;;;4978444;28;20211;-41
2022/05/30 05:51:27;;;;;;;1.50;1.40;;;;;;;;;;4976467;28;20201;-43
2022/05/30 05:53:54;;;;;;;1.27;1.20;;;;;;;;;;4977406;28;20200;-39
2022/05/30 05:56:22;;;;;;;4.57;1.70;;;;;;;;;;4992599;28;20256;-38
2022/05/30 05:58:50;;;;;;;1.60;1.50;;;;;;;;;;4995363;28;20207;-43
2022/05/30 06:01:18;;;;;;;3.27;1.57;;;;;;;;;;4986064;28;20219;-39
2022/05/30 06:03:47;;;;;;;1.80;1.70;;;;;;;;;;4989206;28;20232;-40
2022/05/30 06:06:14;;;;;;;1.63;1.53;;;;;;;;;;4981745;28;20224;-42
2022/05/30 06:08:41;;;;;;;1.90;1.60;;;;;;;;;;4976760;28;20212;-40
2022/05/30 06:11:11;;;;;;;1.80;1.70;;;;;;;;;;4978714;28;20213;-40
2022/05/30 06:13:40;;;;;;;1.67;1.50;;;;;;;;;;4976359;28;20500;-37
2022/05/30 06:16:08;;;;;;;1.77;1.67;;;;;;;;;;4988321;28;20307;-34
2022/05/30 06:18:35;;;;;;;2.37;1.63;;;;;;;;;;4991954;28;20247;-38
2022/05/30 06:21:04;;;;;;;1.60;1.50;;;;;;;;;;4983298;28;20212;-41
2022/05/30 06:23:31;;;;;;;3.07;1.60;;;;;;;;;;4973641;28;20228;-36
2022/05/30 06:26:01;;;;;;;2.33;1.53;;;;;;;;;;4979166;28;20238;-39
2022/05/30 06:28:36;;;;;;;1.60;1.50;;;;;;;;;;4984401;28;20212;-35
2022/05/30 06:31:07;;;;;;;2.30;1.73;;;;;;;;;;4985451;28;20215;-34
2022/05/30 06:33:35;;;;;;;2.97;1.60;;;;;;;;;;4984998;28;20200;-32
2022/05/30 06:36:04;;;;;;;1.50;1.40;;;;;;;;;;4975645;28;20379;-40
2022/05/30 06:38:32;;;;;;;1.70;1.60;;;;;;;;;;4975836;28;20244;-41
2022/05/30 06:40:59;;;;;;;1.50;1.40;;;;;;;;;;4976349;28;20295;-36
2022/05/30 06:43:26;;;;;;;1.63;1.53;;;;;;;;;;4981377;28;20234;-32
2022/05/30 06:45:53;;;;;;;3.33;1.70;;;;;;;;;;4975598;28;20284;-41
2022/05/30 06:48:21;;;;;;;1.50;1.40;;;;;;;;;;4974596;28;20212;-39
2022/05/30 06:50:48;;;;;;;1.57;1.47;;;;;;;;;;4993788;28;20212;-39
2022/05/30 06:53:16;;;;;;;2.80;1.57;;;;;;;;;;4994904;28;20238;-41
2022/05/30 06:55:49;;;;;;;1.97;1.73;;;;;;;;;;4975157;28;20239;-35
2022/05/30 06:58:16;;;;;;;3.20;1.70;;;;;;;;;;4982591;28;20297;-37
2022/05/30 07:00:45;;;;;;;2.03;1.80;;;;;;;;;;4975944;28;20295;-38
2022/05/30 07:03:13;;;;;;;1.60;1.50;;;;;;;;;;4974473;28;20208;-41
2022/05/30 07:05:40;;;;;;;2.50;1.60;;;;;;;;;;4982303;28;20315;-38
2022/05/30 07:08:07;;;;;;;1.90;1.73;;;;;;;;;;4974979;28;20212;-42
2022/05/30 07:10:37;;;;;;;1.90;1.80;;;;;;;;;;4980446;28;20312;-35
2022/05/30 07:13:05;;;;;;;1.50;1.40;;;;;;;;;;4986508;28;20204;-37
2022/05/30 07:15:36;;;;;;;1.53;1.43;;;;;;;;;;4990762;28;20546;-41
2022/05/30 07:18:08;;;;;;;3.10;1.60;;;;;;;;;;4981988;28;20292;-41
2022/05/30 07:20:35;;;;;;;5.07;1.70;;;;;;;;;;4982871;28;20205;-35
2022/05/30 07:23:02;;;;;;;2.57;1.97;;;;;;;;;;4993557;28;20216;-36
2022/05/30 07:25:30;;;;;;;2.03;1.57;;;;;;;;;;4982584;28;20229;-37
2022/05/30 07:27:58;;;;;;;2.03;1.80;;;;;;;;;;4985258;28;20218;-38
2022/05/30 07:30:26;;;;;;;1.87;1.43;;;;;;;;;;4990111;28;20304;-42
2022/05/30 07:32:53;;;;;;;1.27;1.17;;;;;;;;;;4984220;28;20271;-36
2022/05/30 07:35:21;;;;;;;1.00;1.00;;;;;;;;;;4981677;28;20232;-42
2022/05/30 07:37:51;;;;;;;2.23;1.30;;;;;;;;;;4991293;28;20237;-41
2022/05/30 07:40:18;;;;;;;2.37;1.00;;;;;;;;;;4987742;28;20209;-39
2022/05/30 07:42:47;;;;;;;1.37;1.23;;;;;;;;;;4982176;28;20571;-37
2022/05/30 07:45:15;;;;;;;1.43;1.30;;;;;;;;;;4976771;28;20236;-43
2022/05/30 07:47:43;;;;;;;1.20;1.20;;;;;;;;;;4976329;28;20308;-40
2022/05/30 07:50:10;;;;;;;1.63;1.20;;;;;;;;;;4973040;28;20206;-35
2022/05/30 07:52:40;;;;;;;2.80;1.00;;;;;;;;;;4974031;28;20218;-39
2022/05/30 07:55:07;;;;;;;1.37;1.20;;;;;;;;;;4974224;28;20201;-35
2022/05/30 07:57:53;;;;;;;1.27;1.17;;;;;;;;;;4981180;28;20321;-39
2022/05/30 08:00:23;;;;;;;2.77;1.50;;;;;;;;;;4973294;28;20224;-32
2022/05/30 08:02:50;;;;;;;1.00;1.00;;;;;;;;;;4976274;28;20268;-36
2022/05/30 08:05:18;;;;;;;3.77;1.30;;;;;;;;;;4993026;28;20227;-35
2022/05/30 08:07:46;;;;;;;2.70;1.20;;;;;;;;;;4993494;28;20235;-35
2022/05/30 08:10:14;;;;;;;4.50;1.50;;;;;;;;;;4987219;28;20208;-40
2022/05/30 08:12:41;;;;;;;1.83;1.10;;;;;;;;;;4976847;28;20236;-39
2022/05/30 08:15:09;;;;;;;2.37;1.20;;;;;;;;;;4986505;28;20200;-38
2022/05/30 08:17:37;;;;;;;3.60;1.10;;;;;;;;;;4980335;28;20232;-39
2022/05/30 08:20:05;;;;;;;3.30;1.00;;;;;;;;;;4988235;28;20208;-39
2022/05/30 08:22:34;;;;;;;3.13;1.10;;;;;;;;;;4991664;28;20270;-36
2022/05/30 08:25:03;;;;;;;1.43;1.00;;;;;;;;;;4983241;28;20220;-39
2022/05/30 08:27:31;;;;;;;4.30;1.00;;;;;;;;;;4984704;28;20239;-40
2022/05/30 08:29:59;;;;;;;1.67;0.87;;;;;;;;;;4993115;28;20214;-34
2022/05/30 08:32:32;;;;;;;1.23;0.93;;;;;;;;;;4987174;28;20208;-43
2022/05/30 08:35:03;;;;;;;1.20;1.10;;;;;;;;;;4985065;28;20195;-37
2022/05/30 08:37:31;;;;;;;1.53;0.80;;;;;;;;;;4991891;28;20235;-35
2022/05/30 08:42:47;;;;;;;2.43;0.97;;;;;;;;;;4985630;28;20202;-37
2022/05/30 08:45:17;;;;;;;1.60;0.93;;;;;;;;;;4971055;28;20232;-33
2022/05/30 08:47:52;;;;;;;2.70;0.97;;;;;;;;;;4980255;28;20292;-37
2022/05/30 08:50:31;;;;;;;1.50;1.10;;;;;;;;;;4983602;28;20203;-37
2022/05/30 08:53:04;;;;;;;2.20;0.97;;;;;;;;;;4996618;28;20211;-36
2022/05/30 08:55:41;;;;;;;1.50;0.80;;;;;;;;;;4993360;28;20200;-39
2022/05/30 08:58:12;;;;;;;2.53;0.90;;;;;;;;;;4989207;28;20204;-35
2022/05/30 09:00:44;;;;;;;1.83;1.00;;;;;;;;;;4990651;28;20212;-37
2022/05/30 09:03:14;;;;;;;1.33;0.83;;;;;;;;;;4979369;28;20296;-39
2022/05/30 09:05:44;;;;;;;1.60;0.93;;;;;;;;;;4996686;28;20225;-35
2022/05/30 09:08:16;;;;;;;1.60;1.00;;;;;;;;;;5003745;23;20228;-89
2022/05/30 09:10:45;;;;;;;2.20;1.23;;;;;;;;;;4978946;28;20212;-90
2022/05/30 09:13:16;;;;;;;1.70;0.87;;;;;;;;;;4995940;28;20682;-90
2022/05/30 09:15:44;;;;;;;3.03;0.90;;;;;;;;;;4992132;28;20250;-89
2022/05/30 09:18:14;;;;;;;1.13;0.70;;;;;;;;;;4978172;28;20210;-90
2022/05/30 09:20:43;;;;;;;1.03;0.70;;;;;;;;;;4994084;28;20228;-89
2022/05/30 09:23:13;;;;;;;0.73;0.60;;;;;;;;;;4995906;28;20204;-90
2022/05/30 09:26:00;;;;;;;0.70;0.63;;;;;;;;;;4976982;28;20232;-90
2022/05/30 09:28:28;;;;;;;4.23;1.23;;;;;;;;;;4988080;28;20196;-90
2022/05/30 09:30:59;;;;;;;2.00;0.90;;;;;;;;;;4980556;28;20232;-90
2022/05/30 09:33:30;;;;;;;1.20;1.00;;;;;;;;;;4981110;28;20303;-90
2022/05/30 09:36:12;;;;;;;2.30;1.00;;;;;;;;;;4988317;28;20224;-90
2022/05/30 09:38:43;;;;;;;0.80;0.80;;;;;;;;;;4995739;28;20677;-90
2022/05/30 09:41:14;;;;;;;2.70;1.57;;;;;;;;;;4981521;28;20288;-90
2022/05/30 09:43:43;;;;;;;2.13;0.90;;;;;;;;;;4993741;28;20220;-90
2022/05/30 09:46:18;;;;;;;2.73;1.30;;;;;;;;;;4988119;28;20236;-89
2022/05/30 09:49:00;;;;;;;1.57;1.00;;;;;;;;;;4990387;28;20206;-90
2022/05/30 09:51:32;;;;;;;1.20;1.03;;;;;;;;;;4996356;28;20204;-90
2022/05/30 09:53:59;;;;;;;1.13;0.63;;;;;;;;;;4990786;28;20243;-90
2022/05/30 09:56:28;;;;;;;0.87;0.67;;;;;;;;;;4982681;28;20239;-90
2022/05/30 09:59:01;;;;;;;1.47;0.80;;;;;;;;;;4986201;28;20208;-90
2022/05/30 10:01:29;;;;;;;2.23;0.80;;;;;;;;;;4982886;28;20220;-89
2022/05/30 10:04:13;;;;;;;1.07;0.70;;;;;;;;;;4977912;28;20209;-90
2022/05/30 10:06:42;;;;;;;0.73;0.60;;;;;;;;;;4993636;28;20315;-89
2022/05/30 10:09:11;;;;;;;1.30;0.90;;;;;;;;;;4996104;28;20303;-90
2022/05/30 10:11:38;;;;;;;1.23;0.90;;;;;;;;;;4985801;28;20208;-90
2022/05/30 10:14:19;;;;;;;0.50;0.50;;;;;;;;;;4984491;28;20647;-89
2022/05/30 10:16:46;;;;;;;1.23;0.70;;;;;;;;;;4985745;28;20323;-89
2022/05/30 10:19:23;;;;;;;2.07;0.90;;;;;;;;;;4988038;28;20220;-90
2022/05/30 10:30:25;;;;;;;1.70;0.70;;;;;;;;;;4978342;28;20195;-90
2022/05/30 10:32:58;;;;;;;1.27;0.90;;;;;;;;;;4988549;28;20220;-91
2022/05/30 10:35:29;;;;;;;1.20;0.80;;;;;;;;;;4976209;28;20204;-89
2022/05/30 10:38:11;;;;;;;0.70;0.70;;;;;;;;;;4983090;28;20655;-90
2022/05/30 10:40:46;;;;;;;1.53;0.70;;;;;;;;;;4987468;28;20231;-90
2022/05/30 10:43:16;;;;;;;1.13;0.80;;;;;;;;;;4981825;28;20208;-90
2022/05/30 10:45:47;;;;;;;0.70;0.70;;;;;;;;;;4979449;28;20320;-91
2022/05/30 10:48:19;;;;;;;0.83;0.70;;;;;;;;;;4984277;28;20211;-89
2022/05/30 10:50:53;;;;;;;0.77;0.73;;;;;;;;;;4988017;28;20200;-90
2022/05/30 10:53:24;;;;;;;0.73;0.73;;;;;;;;;;4985466;28;20211;-89
2022/05/30 10:55:54;;;;;;;0.80;0.77;;;;;;;;;;4977399;28;20256;-90
2022/05/30 10:58:26;;;;;;;2.50;0.80;;;;;;;;;;4980244;28;20212;-91
2022/05/30 11:00:56;;;;;;;0.80;0.80;;;;;;;;;;4981352;28;20210;-91
2022/05/30 11:03:28;;;;;;;3.90;0.50;;;;;;;;;;4984501;28;20264;-90
2022/05/30 11:05:57;;;;;;;1.10;0.60;;;;;;;;;;4975560;28;20315;-91
2022/05/30 11:08:27;;;;;;;0.70;0.70;;;;;;;;;;4982857;28;20216;-90
2022/05/30 11:10:57;;;;;;;1.77;0.73;;;;;;;;;;4976394;28;20242;-90
2022/05/30 11:13:35;;;;;;;0.90;0.90;;;;;;;;;;4986959;28;20214;-90
2022/05/30 11:16:03;;;;;;;1.23;0.70;;;;;;;;;;4975788;28;20220;-91
2022/05/30 11:18:35;;;;;;;1.10;0.73;;;;;;;;;;4976513;28;20208;-91
2022/05/30 11:21:06;;;;;;;1.37;0.80;;;;;;;;;;4986802;28;20602;-91
2022/05/30 11:23:33;;;;;;;0.77;0.70;;;;;;;;;;4987237;28;20200;-90
2022/05/30 11:26:08;;;;;;;2.83;0.80;;;;;;;;;;4984523;28;20239;-91
2022/05/30 11:28:41;;;;;;;3.70;0.80;;;;;;;;;;4974162;28;20203;-90
2022/05/30 11:31:14;;;;;;;0.63;0.63;;;;;;;;;;4979535;28;20212;-90
2022/05/30 11:33:53;;;;;;;0.77;0.77;;;;;;;;;;4982937;28;20215;-90
2022/05/30 11:36:39;;;;;;;2.17;0.77;;;;;;;;;;4980267;28;20630;-91
2022/05/30 11:39:11;;;;;;;0.80;0.80;;;;;;;;;;4980164;28;20210;-90
2022/05/30 11:41:56;;;;;;;0.60;0.60;;;;;;;;;;4985905;28;20214;-92
2022/05/30 11:44:34;;;;;;;1.47;0.70;;;;;;;;;;4981388;28;20286;-91
2022/05/30 11:47:06;;;;;;;1.13;0.70;;;;;;;;;;4977926;28;20566;-91
2022/05/30 11:49:35;;;;;;;0.70;0.70;;;;;;;;;;4990670;28;20565;-90
2022/05/30 11:52:12;;;;;;;0.60;0.50;;;;;;;;;;4974695;28;20216;-90
2022/05/30 11:54:52;;;;;;;1.20;0.80;;;;;;;;;;4981861;28;20204;-90
2022/05/30 11:57:24;;;;;;;2.07;0.80;;;;;;;;;;4981798;28;20227;-91
2022/05/30 12:00:02;;;;;;;0.77;0.70;;;;;;;;;;4975930;28;20219;-91
2022/05/30 12:02:38;;;;;;;2.00;0.80;;;;;;;;;;4978089;28;20731;-91
2022/05/30 12:05:13;;;;;;;2.20;0.60;;;;;;;;;;4986861;28;20673;-91
2022/05/30 12:08:05;;;;;;;1.90;0.73;;;;;;;;;;4995283;28;20230;-90
2022/05/30 12:10:43;;;;;;;0.80;0.60;;;;;;;;;;4968142;28;20237;-90
2022/05/30 12:13:18;;;;;;;0.83;0.70;;;;;;;;;;4975000;28;20212;-91
2022/05/30 12:16:00;;;;;;;2.47;0.80;;;;;;;;;;4975792;28;20224;-91
2022/05/30 12:24:24;;;;;;;1.90;0.90;;;;;;;;;;4973768;28;20682;-90
2022/05/30 12:27:05;;;;;;;1.07;0.73;;;;;;;;;;4987855;28;20701;-91
2022/05/30 12:29:47;;;;;;;0.87;0.67;;;;;;;;;;4986462;28;20210;-90
2022/05/30 12:32:32;;;;;;;3.33;0.80;;;;;;;;;;4982612;28;20212;-91
2022/05/30 12:35:21;;;;;;;0.97;0.80;;;;;;;;;;4982491;28;20219;-90
2022/05/30 12:37:51;;;;;;;0.80;0.80;;;;;;;;;;4971580;28;20227;-90
2022/05/30 12:40:32;;;;;;;2.70;0.70;;;;;;;;;;4981868;28;20200;-90
2022/05/30 12:43:03;;;;;;;2.20;0.70;;;;;;;;;;4984156;28;20206;-90
2022/05/30 12:45:37;;;;;;;0.97;0.83;;;;;;;;;;4973236;28;20251;-90
2022/05/30 12:48:13;;;;;;;0.80;0.70;;;;;;;;;;4980491;28;20222;-91
2022/05/30 12:50:43;;;;;;;1.27;0.90;;;;;;;;;;4993789;28;20212;-92
2022/05/30 12:53:11;;;;;;;0.93;0.60;;;;;;;;;;4992693;28;20212;-90
2022/05/30 12:55:39;;;;;;;2.33;0.73;;;;;;;;;;4980691;28;20228;-90
2022/05/30 12:58:06;;;;;;;1.27;0.80;;;;;;;;;;4984638;28;20224;-90
2022/05/30 13:00:48;;;;;;;0.90;0.90;;;;;;;;;;4990470;28;20223;-93
2022/05/30 13:03:30;;;;;;;1.00;0.90;;;;;;;;;;4975396;28;20224;-91
2022/05/30 13:06:05;;;;;;;1.03;0.90;;;;;;;;;;4982245;28;20251;-91
2022/05/30 13:09:06;;;;;;;0.57;0.57;;;;;;;;;;4973094;28;20223;-91
2022/05/30 13:11:38;;;;;;;0.50;0.50;;;;;;;;;;4982398;28;20212;-90
2022/05/30 13:14:08;;;;;;;1.27;0.60;;;;;;;;;;4985341;28;20204;-91
2022/05/30 13:16:38;;;;;;;0.80;0.80;;;;;;;;;;4982282;28;20256;-90
2022/05/30 13:19:06;;;;;;;0.90;0.80;;;;;;;;;;4977295;28;20216;-91
2022/05/30 13:21:34;;;;;;;1.93;0.80;;;;;;;;;;4989703;28;20216;-91
2022/05/30 13:24:01;;;;;;;1.23;0.80;;;;;;;;;;4992814;28;20226;-90
2022/05/30 13:26:33;;;;;;;0.80;0.80;;;;;;;;;;4985037;28;20228;-91
2022/05/30 13:29:01;;;;;;;1.50;0.90;;;;;;;;;;4975590;28;20213;-90
2022/05/30 13:31:29;;;;;;;1.90;0.80;;;;;;;;;;4983354;28;20266;-90
2022/05/30 13:33:56;;;;;;;1.27;0.70;;;;;;;;;;4986574;28;20679;-90
2022/05/30 13:36:27;;;;;;;1.67;0.80;;;;;;;;;;4995742;28;20234;-91
2022/05/30 13:38:56;;;;;;;1.67;0.70;;;;;;;;;;4992011;28;20208;-91
2022/05/30 13:41:28;;;;;;;1.63;0.97;;;;;;;;;;4988157;28;20211;-90
2022/05/30 13:43:56;;;;;;;2.00;0.80;;;;;;;;;;4976402;28;20201;-91
2022/05/30 13:46:24;;;;;;;0.93;0.70;;;;;;;;;;4980190;28;20606;-91
2022/05/30 13:48:52;;;;;;;1.83;0.90;;;;;;;;;;4980865;28;20557;-91
2022/05/30 13:51:21;;;;;;;0.70;0.70;;;;;;;;;;4981391;28;20299;-92
2022/05/30 13:54:02;;;;;;;0.73;0.70;;;;;;;;;;4982245;28;20992;-91
2022/05/30 13:56:33;;;;;;;1.93;1.10;;;;;;;;;;4987668;28;20231;-90
2022/05/30 13:59:03;;;;;;;1.80;0.90;;;;;;;;;;4988318;28;20232;-91
2022/05/30 14:01:33;;;;;;;0.67;0.67;;;;;;;;;;4989126;28;20652;-90
2022/05/30 14:04:02;;;;;;;5.60;1.40;;;;;;;;;;4982726;28;20207;-91
2022/05/30 14:06:31;;;;;;;0.87;0.70;;;;;;;;;;4975724;28;20232;-91
2022/05/30 14:08:58;;;;;;;1.40;0.73;;;;;;;;;;4974837;28;20316;-91
2022/05/30 14:11:28;;;;;;;0.80;0.80;;;;;;;;;;4987171;28;20645;-90
2022/05/30 14:13:55;;;;;;;1.27;0.60;;;;;;;;;;4995094;28;20215;-92
2022/05/30 14:16:36;;;;;;;1.20;0.70;;;;;;;;;;4990221;28;20588;-93
2022/05/30 14:19:05;;;;;;;0.87;0.87;;;;;;;;;;4985590;28;20213;-91
2022/05/30 14:21:33;;;;;;;1.13;0.70;;;;;;;;;;4994369;28;20218;-90
2022/05/30 14:24:13;;;;;;;1.57;0.80;;;;;;;;;;4992270;28;20287;-90
2022/05/30 14:26:42;;;;;;;2.43;0.90;;;;;;;;;;4988287;28;20240;-91
2022/05/30 14:29:11;;;;;;;2.60;1.10;;;;;;;;;;4975529;28;20201;-91
2022/05/30 14:31:39;;;;;;;2.60;0.87;;;;;;;;;;4981878;28;20219;-90
2022/05/30 14:34:13;;;;;;;1.47;0.80;;;;;;;;;;4987339;28;20211;-91
2022/05/30 14:36:42;;;;;;;0.87;0.80;;;;;;;;;;4977549;28;20216;-91
2022/05/30 14:39:14;;;;;;;1.23;1.10;;;;;;;;;;4992885;28;20208;-91
2022/05/30 14:41:53;;;;;;;0.73;0.73;;;;;;;;;;4975791;28;20216;-91
2022/05/30 14:44:21;;;;;;;1.87;0.67;;;;;;;;;;4983312;28;20204;-91
2022/05/30 14:46:50;;;;;;;1.50;0.80;;;;;;;;;;4983030;28;20777;-91
2022/05/30 14:49:19;;;;;;;1.27;0.80;;;;;;;;;;4992305;28;20214;-91
2022/05/30 14:51:54;;;;;;;3.73;1.03;;;;;;;;;;4994495;28;20211;-91
2022/05/30 14:54:26;;;;;;;1.00;0.80;;;;;;;;;;4989666;28;20580;-90
2022/05/30 14:56:55;;;;;;;1.47;0.83;;;;;;;;;;4989369;28;20730;-92
2022/05/30 14:59:36;;;;;;;0.87;0.80;;;;;;;;;;4975002;28;20639;-92
2022/05/30 15:02:03;;;;;;;0.80;0.80;;;;;;;;;;4977214;28;20576;-91
2022/05/30 15:04:31;;;;;;;3.17;1.10;;;;;;;;;;4986576;28;20212;-91
2022/05/30 15:07:01;;;;;;;0.80;0.80;;;;;;;;;;4974743;28;20302;-91
2022/05/30 15:09:28;;;;;;;1.63;0.90;;;;;;;;;;4974544;28;20223;-91
2022/05/30 15:11:57;;;;;;;2.90;0.87;;;;;;;;;;4973777;28;20209;-91
2022/05/30 15:14:26;;;;;;;0.93;0.70;;;;;;;;;;4974253;28;20208;-91
2022/05/30 15:16:54;;;;;;;1.13;0.70;;;;;;;;;;4975937;28;20233;-91
2022/05/30 15:19:22;;;;;;;0.80;0.80;;;;;;;;;;4987629;28;20208;-90
2022/05/30 15:21:50;;;;;;;1.20;1.00;;;;;;;;;;4994350;28;20760;-91
2022/05/30 15:24:18;;;;;;;0.93;0.83;;;;;;;;;;4991230;28;20232;-91
2022/05/30 15:29:16;;;;;;;0.80;0.70;;;;;;;;;;4985849;28;20291;-38
2022/05/30 15:31:43;;;;;;;0.70;0.70;;;;;;;;;;4976030;28;20212;-40